Bladensburg, MD (20710)

12:51 AM EDT on October 22, 2014 (GMT -0400)
Riverdale Park | Change Station
CLOSE
Current Station
Personal Weather Station
Location: Riverdale, MD
Elevation: 52 ft
Nearby Weather Stations

Elev 52 ft 38.96 °N, 76.94 °W | Updated 0 second ago

Rain
Rain
52.8 °F
Feels Like 52.8 °F
N
4.0
Wind Variable Wind from NNE
Gusts 10.0 mph

Today
High -- | Low -- °F
--% Chance of Precip.
Yesterday
High -- | Low -- °F
Precip. -- in
7:24 AM 6:19 PM
Waning Crescent, 3% visible
Pressure 29.88 in
Visibility 7.0 miles
Clouds Scattered Clouds 5500 ft
Overcast 7000 ft
Dew Point 51 °F
Humidity 94%
Rainfall 0.11 in
Snow Depth Not available.
UV 0 out of 12
Pollen 1.90 out of 12
Air Quality Not available.
Flu Activity Sporadic
METAR KCGS 220430Z AUTO 36006KT 7SM SCT055 OVC070 12/11 A2988 RMK AO1

More Conditions Fewer Conditions

Pressure 29.88 in
Visibility 7.0 miles
Clouds Scattered Clouds 5500 ft
Overcast 7000 ft
Dew Point 51 °F
Humidity 94%
Rainfall 0.11 in
Snow Depth Not available.
UV 0 out of 12
Pollen 1.90 out of 12
Air Quality Not available.
Flu Activity Sporadic
METAR KCGS 220430Z AUTO 36006KT 7SM SCT055 OVC070 12/11 A2988 RMK AO1

More Conditions Fewer Conditions

10-Day Weather Forecast

Almanac

Astronomy

Oct. 22, 2014 Rise Set
Actual Time 7:24 AM EDT 6:19 PM EDT
Civil Twilight 6:57 AM EDT 6:46 PM EDT
Nautical Twilight 6:26 AM EDT 7:17 PM EDT
Astronomical Twilight 5:55 AM EDT 7:48 PM EDT
Moon 6:04 AM EDT 5:44 PM EDT
Length of Visible Light 11h 49m
Length of Day
10h 55m
Tomorrow will be 2m 22s shorter.
Waning Crescent, 3% of the Moon is Illuminated
Today
Waning Crescent
Oct 23
New
Oct 30
First Quarter
Nov 6
Full
Nov 14
Last Quarter

Today's Extremes

State Highs State Lows

Community

WunderPhotos

Upload Photos

1,763,882 photos uploaded!

Nearby

Snow Depth

Station Depth Elevation
No new snow has been reported.

Earthquake Activity

City Distance Mag. Time & Date
No recent earthquake activity has been reported nearby.
Minimum magnitude displayed is 2.5.

Coastal Water Temperatures

Place Temperature
Washington, DC 63.0 °F
Baltimore, MD 66.0 °F
Solomons Island, MD 66.0 °F

Nearby Weather Stations